createdAt,value
2022-08-01T00:02:24.582Z,3.20
2022-08-01T00:07:27.456Z,2.90
2022-08-01T00:12:30.224Z,2.90
2022-08-01T00:17:33.120Z,3.10
2022-08-01T00:22:36.114Z,2.80
2022-08-01T00:27:38.973Z,2.90
2022-08-01T00:32:44.905Z,2.20
2022-08-01T00:37:47.800Z,2.20
2022-08-01T00:42:50.591Z,2.00
2022-08-01T00:47:54.906Z,2.00
2022-08-01T00:52:59.199Z,2.20
2022-08-01T00:58:05.181Z,1.90
2022-08-01T01:03:09.776Z,1.70
2022-08-01T01:08:24.457Z,1.80
2022-08-01T01:13:48.457Z,2.00
2022-08-01T01:19:00.427Z,2.00
2022-08-01T01:24:40.045Z,1.90
2022-08-01T01:30:00.253Z,2.00
2022-08-01T01:35:26.987Z,2.10
2022-08-01T01:40:29.844Z,2.00
2022-08-01T01:45:32.657Z,2.00
2022-08-01T01:50:35.431Z,1.70
2022-08-01T01:55:49.099Z,2.00
2022-08-01T02:00:53.951Z,1.90
2022-08-01T02:05:58.120Z,2.20
2022-08-01T02:11:20.633Z,1.90
2022-08-01T02:16:26.335Z,2.00
2022-08-01T02:21:33.625Z,2.10
2022-08-01T02:26:36.555Z,1.90
2022-08-01T02:31:40.873Z,2.20
2022-08-01T02:36:43.605Z,2.20
2022-08-01T02:41:49.320Z,1.70
2022-08-01T02:47:05.769Z,2.00
2022-08-01T02:52:09.975Z,1.80
2022-08-01T02:57:13.981Z,1.90
2022-08-01T03:02:17.072Z,2.10
2022-08-01T03:07:19.816Z,2.50
2022-08-01T03:12:28.146Z,2.00
2022-08-01T03:17:31.045Z,1.90
2022-08-01T03:22:33.907Z,1.90
2022-08-01T03:27:37.729Z,2.10
2022-08-01T03:32:40.684Z,1.90
2022-08-01T03:38:14.807Z,1.80
2022-08-01T03:43:23.721Z,2.40
2022-08-01T03:48:29.977Z,2.00
2022-08-01T03:53:33.154Z,2.40
2022-08-01T03:58:37.710Z,2.30
2022-08-01T04:10:59.612Z,2.70
2022-08-01T04:16:02.510Z,3.10
2022-08-01T04:21:05.273Z,2.90
2022-08-01T04:26:08.143Z,2.80
2022-08-01T04:31:10.943Z,3.40
2022-08-01T04:36:13.887Z,3.00
2022-08-01T04:41:16.734Z,2.70
2022-08-01T04:46:19.502Z,3.00
2022-08-01T04:51:23.424Z,2.70
2022-08-01T04:56:26.249Z,2.60
2022-08-01T05:01:29.151Z,2.70
2022-08-01T05:06:32.010Z,2.70
2022-08-01T05:11:34.916Z,2.60
2022-08-01T05:16:37.748Z,2.50
2022-08-01T05:21:40.724Z,2.40
2022-08-01T05:26:43.513Z,2.70
2022-08-01T05:31:47.359Z,2.60
2022-08-01T05:36:52.977Z,2.80
2022-08-01T05:41:59.567Z,2.80
2022-08-01T05:47:03.765Z,2.70
2022-08-01T05:52:06.945Z,2.40
2022-08-01T05:57:10.051Z,2.70
2022-08-01T06:02:14.140Z,3.30
2022-08-01T06:07:16.987Z,2.60
2022-08-01T06:12:19.841Z,2.70
2022-08-01T06:17:22.609Z,2.50
2022-08-01T06:22:25.650Z,3.00
2022-08-01T06:27:28.624Z,3.50
2022-08-01T06:32:32.187Z,2.70
2022-08-01T06:37:34.963Z,2.80
2022-08-01T06:42:38.184Z,3.00
2022-08-01T06:47:41.567Z,2.50
2022-08-01T06:52:44.441Z,3.40
2022-08-01T06:57:50.939Z,2.90
2022-08-01T07:02:55.830Z,2.10
2022-08-01T07:07:59.237Z,2.20
2022-08-01T07:13:02.067Z,2.60
2022-08-01T07:18:05.768Z,2.50
2022-08-01T07:23:09.398Z,2.10
2022-08-01T07:28:16.593Z,2.10
2022-08-01T07:33:19.405Z,2.00
2022-08-01T07:38:22.288Z,1.80
2022-08-01T07:43:25.120Z,2.40
2022-08-01T07:48:28.139Z,2.30
2022-08-01T07:53:30.991Z,2.70
2022-08-01T07:58:34.787Z,2.00
2022-08-01T08:03:37.625Z,2.10
2022-08-01T08:08:40.540Z,2.50
2022-08-01T08:13:43.286Z,1.30
2022-08-01T08:18:46.173Z,1.80
2022-08-01T08:24:08.038Z,1.50
2022-08-01T08:29:12.345Z,1.70
2022-08-01T08:34:15.143Z,1.90
2022-08-01T08:39:19.907Z,1.30
2022-08-01T08:44:23.021Z,1.10
2022-08-01T08:49:35.661Z,1.20
2022-08-01T08:54:39.915Z,1.00
2022-08-01T08:59:46.666Z,1.40
2022-08-01T09:04:51.075Z,1.20
2022-08-01T09:09:53.887Z,1.00
2022-08-01T09:14:57.985Z,1.20
2022-08-01T09:20:00.808Z,1.00
2022-08-01T09:25:09.810Z,1.20
2022-08-01T09:30:19.333Z,1.20
2022-08-01T09:35:29.817Z,1.30
2022-08-01T09:41:00.313Z,1.40
2022-08-01T09:46:14.481Z,1.50
2022-08-01T09:51:58.624Z,1.20
2022-08-01T09:56:43.462Z,1.40
2022-08-01T10:01:49.340Z,1.40
2022-08-01T10:06:55.675Z,1.30
2022-08-01T10:11:59.714Z,1.50
2022-08-01T10:17:05.198Z,1.30
2022-08-01T10:22:11.090Z,1.20
2022-08-01T10:27:24.240Z,1.20
2022-08-01T10:32:28.961Z,1.20
2022-08-01T10:37:34.810Z,1.30
2022-08-01T10:42:37.548Z,1.70
2022-08-01T10:48:21.869Z,1.40
2022-08-01T10:53:31.699Z,1.20
2022-08-01T10:58:47.596Z,1.40
2022-08-01T11:04:02.861Z,1.30
2022-08-01T11:09:40.703Z,1.30
2022-08-01T11:14:58.884Z,1.50
2022-08-01T11:20:22.537Z,1.10
2022-08-01T11:26:05.247Z,1.10
2022-08-01T11:31:08.050Z,1.20
2022-08-01T11:36:15.782Z,1.40
2022-08-01T11:41:38.276Z,1.10
2022-08-01T11:47:08.784Z,0.90
2022-08-01T11:52:19.297Z,0.90
2022-08-01T11:57:24.356Z,1.00
2022-08-01T12:02:37.721Z,1.10
2022-08-01T12:07:42.619Z,1.10
2022-08-01T12:12:50.222Z,1.00
2022-08-01T12:18:01.449Z,0.80
2022-08-01T12:23:09.934Z,0.90
2022-08-01T12:28:14.883Z,1.00
2022-08-01T12:38:27.940Z,1.00
2022-08-01T12:43:30.728Z,1.20
2022-08-01T12:48:33.472Z,0.90
2022-08-01T12:53:41.269Z,1.30
2022-08-01T12:58:44.623Z,1.20
2022-08-01T13:04:05.334Z,1.20
2022-08-01T13:09:10.064Z,1.20
2022-08-01T13:14:28.299Z,0.80
2022-08-01T13:19:48.251Z,0.90
2022-08-01T13:24:51.034Z,1.40
2022-08-01T13:29:54.509Z,1.10
2022-08-01T13:35:04.982Z,1.10
2022-08-01T13:40:09.537Z,1.40
2022-08-01T13:45:14.543Z,1.00
2022-08-01T13:50:18.041Z,1.30
2022-08-01T13:55:20.943Z,1.10
2022-08-01T14:00:23.686Z,1.30
2022-08-01T14:05:26.434Z,1.10
2022-08-01T14:10:29.259Z,1.90
2022-08-01T14:15:38.369Z,1.30
2022-08-01T14:20:43.065Z,1.10
2022-08-01T14:26:02.773Z,1.20
2022-08-01T14:31:09.026Z,1.40
2022-08-01T14:36:29.334Z,1.00
2022-08-01T14:41:33.713Z,1.40
2022-08-01T14:46:36.574Z,1.50
2022-08-01T14:51:39.700Z,1.20
2022-08-01T14:56:42.466Z,1.00
2022-08-01T15:01:45.241Z,1.20
2022-08-01T15:06:48.688Z,1.40
2022-08-01T15:11:51.465Z,1.30
2022-08-01T15:16:54.226Z,1.40
2022-08-01T15:21:57.035Z,1.30
2022-08-01T15:26:59.890Z,1.20
2022-08-01T15:32:04.699Z,1.40
2022-08-01T15:37:07.921Z,1.30
2022-08-01T15:42:13.283Z,1.50
2022-08-01T15:47:25.166Z,1.80
2022-08-01T15:52:31.779Z,2.30
2022-08-01T15:57:35.003Z,2.10
2022-08-01T16:02:37.820Z,2.00
2022-08-01T16:07:59.413Z,1.90
2022-08-01T16:13:07.520Z,1.70
2022-08-01T16:23:15.925Z,1.40
2022-08-01T16:28:19.717Z,1.40
2022-08-01T16:33:47.543Z,1.40
2022-08-01T16:38:46.413Z,1.20
2022-08-01T16:43:53.405Z,1.40
2022-08-01T16:48:57.464Z,1.50
2022-08-01T16:54:00.817Z,1.30
2022-08-01T16:59:03.683Z,1.40
2022-08-01T17:04:06.652Z,1.40
2022-08-01T17:09:09.687Z,1.30
2022-08-01T17:14:12.485Z,1.80
2022-08-01T17:19:15.372Z,1.80
2022-08-01T17:24:18.738Z,1.80
2022-08-01T17:29:21.504Z,1.70
2022-08-01T17:34:24.344Z,1.90
2022-08-01T17:39:38.455Z,1.80
2022-08-01T17:44:42.066Z,1.60
2022-08-01T17:49:55.035Z,2.00
2022-08-01T17:54:58.802Z,1.80
2022-08-01T18:00:01.823Z,2.30
2022-08-01T18:05:04.868Z,2.50
2022-08-01T18:10:13.533Z,2.80
2022-08-01T18:15:23.386Z,2.80
2022-08-01T18:20:30.087Z,3.20
2022-08-01T18:25:34.026Z,2.90
2022-08-01T18:30:36.984Z,2.90
2022-08-01T18:35:52.385Z,2.60
2022-08-01T18:40:56.861Z,2.60
2022-08-01T18:46:01.330Z,2.70
2022-08-01T18:51:04.115Z,3.40
2022-08-01T18:56:12.138Z,2.50
2022-08-01T19:01:15.149Z,2.80
2022-08-01T19:06:17.952Z,3.20
2022-08-01T19:11:21.023Z,2.90
2022-08-01T19:16:23.826Z,3.20
2022-08-01T19:21:26.802Z,3.60
2022-08-01T19:26:29.686Z,4.60
2022-08-01T19:31:32.498Z,5.90
2022-08-01T19:36:38.665Z,4.50
2022-08-01T19:41:41.805Z,4.00
2022-08-01T19:46:44.662Z,7.30
2022-08-01T19:51:50.447Z,3.70
2022-08-01T19:56:53.414Z,3.60
2022-08-01T20:01:56.827Z,2.70
2022-08-01T20:06:59.689Z,3.60
2022-08-01T20:12:02.528Z,3.20
2022-08-01T20:17:05.810Z,2.90
2022-08-01T20:22:08.579Z,3.00
2022-08-01T20:27:15.851Z,3.30
2022-08-01T20:32:18.818Z,3.10
2022-08-01T20:38:04.100Z,2.60
2022-08-01T20:42:45.043Z,2.90
2022-08-01T20:47:48.124Z,3.10
2022-08-01T20:52:51.856Z,3.00
2022-08-01T20:57:54.783Z,3.00
2022-08-01T21:03:15.691Z,3.30
2022-08-01T21:08:41.020Z,3.30
2022-08-01T21:13:49.169Z,3.20
2022-08-01T21:19:18.691Z,3.20
2022-08-01T21:24:23.358Z,3.70
2022-08-01T21:29:26.143Z,3.10
2022-08-01T21:34:29.914Z,3.20
2022-08-01T21:39:34.471Z,3.50
2022-08-01T21:44:45.496Z,3.20
2022-08-01T21:49:48.262Z,3.10
2022-08-01T21:55:35.486Z,3.10
2022-08-01T22:00:40.643Z,2.90
2022-08-01T22:05:50.483Z,2.90
2022-08-01T22:10:58.967Z,2.90
2022-08-01T22:16:03.944Z,3.40
2022-08-01T22:21:06.814Z,3.80
2022-08-01T22:26:11.049Z,4.60
2022-08-01T22:31:16.208Z,4.20
2022-08-01T22:36:19.011Z,4.10
2022-08-01T22:41:29.215Z,4.10
2022-08-01T22:46:49.065Z,3.70
2022-08-01T22:52:08.175Z,3.80
2022-08-01T22:57:16.099Z,3.80
2022-08-01T23:02:19.846Z,3.60
2022-08-01T23:07:24.458Z,3.40
2022-08-01T23:12:27.683Z,3.70
2022-08-01T23:17:31.705Z,3.60
2022-08-01T23:22:36.443Z,3.70
2022-08-01T23:27:52.069Z,2.90
2022-08-01T23:33:07.887Z,3.70
2022-08-01T23:38:11.015Z,4.00
2022-08-01T23:43:17.233Z,3.50
2022-08-01T23:48:20.794Z,2.80
2022-08-01T23:53:23.586Z,3.20
2022-08-01T23:58:26.493Z,3.30
